Airfield :
LOGIN :

Register | Disclaimer

   EN    FR    IT 

 










Legend :    VFR   Marginal VFR   IFR   Intensive IFR   Very Intensive IFR
Visi :
Ceiling :
>= 8 km
>= 3000ft
5 to 8 km
1000 to 3000 ft
1500m to 5 km
500 to 1000 ft
800 to 1500m
200 to 500 ft
< 800m
< 200 ft
Symbols :   Thunderstorms  Fog  Heavy snow  Heavy precipitations  Wind > 20 kt
SIGMETs :     Misc.  Thunderstorms  Icing  Turbulence  Mountain Waves  Volcanic Ashes







- Airport Elevation : 1947 ft
- IATA code : OBF


EDMO - Oberpfaffenhofen

CURRENT METAR :
  • 171420Z 06008KT 9999 BKN018 M05/M08 Q1028

EXPIRED METARs :
  • 171350Z 06009KT 9999 BKN018 M06/M08 Q1028
  • 171320Z 06010KT 9999 BKN016 M06/M09 Q1028
  • 171250Z 05008KT 020V080 9999 BKN016 M06/M08 Q1028
  • 171220Z 03012KT 9999 BKN017 M06/M08 Q1028
  • 171150Z 05009KT 9999 BKN017 M06/M08 Q1028

TAF TAF EDMO
Valid from the 17 at 15:00 until the 18 at 00:00 UTC


171400Z 1715/1724 06010KT 9999 BKN015
No reported NOTAMs for that airfield.
1 SIGMET reported for the München FIR (EDMM) :
 
Severe turbulence
EDMM SIGMET 2 VALID 171300/171700 EDZM
EDMM MUNCHEN FIR SEV TURB FCST WI N5117 E01504 - N5048 E01450 - N4910 E01313 - N4809 E00935 - N4958 E01042 - N5117 E01504 FL180/245 MOV SE NC=



MET'MAP, your aeronautical weather chart ! - Copyright ORBIFLY December 2007 - Disclaimer

ORBIFLY MET'MAP TEAM :

Programming & Development : Alexandra Zaïnal
Concept & Development : Baudouin d'Aumeries
Co-Development & Prog : Marc-Olivier Méhu
Technical & hardware support : Manuel Goepfert

Contact : metmap@orbifly.com




SOURCES & CREDITS :

   NOAA